Time;durP1;ratioP1;P1;durP2;ratioP2;P2;SDS_P1;SDS_P2;PMS_P1;PMS_P2;Temp;Humidity;BMP_temperature;BMP_pressure;BME280_temperature;BME280_humidity;BME280_pressure;Samples;Min_cycle;Max_cycle;Signal;HPM_P1;HPM_P2
2023/03/03 00:01:31;;;;;;;2.90;2.70;;;6.50;49.40;;;;;;5005101;28;20401;-76
2023/03/03 00:03:58;;;;;;;3.97;3.60;;;6.50;49.40;;;;;;5003218;28;20064;-74
2023/03/03 00:06:25;;;;;;;5.10;3.42;;;6.50;49.40;;;;;;5003853;28;20477;-74
2023/03/03 00:08:52;;;;;;;5.88;3.47;;;6.50;49.40;;;;;;5004659;28;20037;-77
2023/03/03 00:11:18;;;;;;;4.68;3.85;;;6.50;49.40;;;;;;5005617;28;20041;-74
2023/03/03 00:13:50;;;;;;;5.05;3.40;;;6.60;49.60;;;;;;5001841;28;20516;-75
2023/03/03 00:16:30;;;;;;;5.40;3.05;;;6.50;49.40;;;;;;5003924;28;20116;-74
2023/03/03 00:18:57;;;;;;;5.72;3.42;;;6.60;49.60;;;;;;4992086;28;20036;-74
2023/03/03 00:21:28;;;;;;;4.57;3.10;;;6.60;49.50;;;;;;5005189;28;20033;-75
2023/03/03 00:24:13;;;;;;;3.17;2.97;;;6.60;49.40;;;;;;4987467;28;20038;-75
2023/03/03 00:26:51;;;;;;;4.15;3.10;;;6.60;49.40;;;;;;4998262;28;20046;-75
2023/03/03 00:29:38;;;;;;;5.93;4.32;;;6.70;49.60;;;;;;5005178;28;20041;-74
2023/03/03 00:32:14;;;;;;;5.00;3.50;;;6.70;49.60;;;;;;5003722;28;20469;-75
2023/03/03 00:34:41;;;;;;;4.00;3.50;;;6.70;49.50;;;;;;4998842;28;20034;-77
2023/03/03 00:37:34;;;;;;;5.13;3.85;;;6.70;49.50;;;;;;4990272;28;20030;-74
2023/03/03 00:40:18;;;;;;;3.55;3.25;;;6.70;49.50;;;;;;4999494;28;20034;-77
2023/03/03 00:42:54;;;;;;;4.53;3.45;;;6.70;49.40;;;;;;5004295;28;20030;-76
2023/03/03 00:45:35;;;;;;;3.67;3.33;;;6.70;49.40;;;;;;4991033;28;20124;-75
2023/03/03 00:48:18;;;;;;;4.20;3.72;;;6.70;49.40;;;;;;5001598;28;20041;-75
2023/03/03 00:50:44;;;;;;;5.70;3.55;;;6.80;49.60;;;;;;5002619;28;20053;-74
2023/03/03 00:53:18;;;;;;;4.35;3.95;;;6.70;49.40;;;;;;5004235;28;20052;-75
2023/03/03 00:55:47;;;;;;;4.20;3.28;;;6.70;49.40;;;;;;5000106;28;20026;-74
2023/03/03 00:58:14;;;;;;;3.35;3.13;;;6.70;49.40;;;;;;4985708;28;20309;-75
2023/03/03 01:00:43;;;;;;;4.43;3.22;;;6.80;49.60;;;;;;5003566;28;20029;-74
2023/03/03 01:03:16;;;;;;;3.65;3.35;;;6.70;49.50;;;;;;5003972;28;20049;-75
2023/03/03 01:05:43;;;;;;;3.65;3.20;;;6.80;49.70;;;;;;4995116;28;20296;-74
2023/03/03 01:08:10;;;;;;;5.25;3.40;;;6.70;50.10;;;;;;4986830;28;20036;-75
2023/03/03 01:10:51;;;;;;;4.00;2.83;;;6.70;49.60;;;;;;5002100;28;20073;-74
2023/03/03 01:13:20;;;;;;;4.35;3.47;;;6.70;49.70;;;;;;5000237;28;20113;-74
2023/03/03 01:15:46;;;;;;;5.68;3.50;;;6.60;49.50;;;;;;4999352;28;20029;-75
2023/03/03 01:18:13;;;;;;;4.00;3.30;;;6.60;49.60;;;;;;4986323;28;20034;-75
2023/03/03 01:20:40;;;;;;;3.40;3.13;;;6.60;49.60;;;;;;4999912;28;20466;-74
2023/03/03 01:23:07;;;;;;;3.28;2.95;;;6.60;49.70;;;;;;4995299;28;20030;-74
2023/03/03 01:25:34;;;;;;;4.90;3.13;;;6.50;49.50;;;;;;5001701;28;20112;-75
2023/03/03 01:28:00;;;;;;;4.13;2.90;;;6.50;49.60;;;;;;4994481;28;20040;-75
2023/03/03 01:30:26;;;;;;;4.82;3.33;;;6.50;49.60;;;;;;4999392;28;20132;-76
2023/03/03 01:32:53;;;;;;;4.82;3.28;;;6.40;49.40;;;;;;5000118;28;20025;-76
2023/03/03 01:35:19;;;;;;;4.93;3.67;;;6.40;49.50;;;;;;5002360;28;20037;-74
2023/03/03 01:37:45;;;;;;;3.95;2.90;;;6.40;49.50;;;;;;5002745;28;20030;-75
2023/03/03 01:40:17;;;;;;;4.63;3.15;;;6.40;49.50;;;;;;5000320;28;20038;-75
2023/03/03 01:42:44;;;;;;;3.45;3.15;;;6.30;49.40;;;;;;4997807;28;20095;-75
2023/03/03 01:45:19;;;;;;;3.58;2.97;;;6.30;49.50;;;;;;4984211;28;20065;-74
2023/03/03 01:48:17;;;;;;;4.07;2.85;;;6.30;49.60;;;;;;5001095;28;20037;-74
2023/03/03 01:50:59;;;;;;;4.32;2.78;;;6.20;49.40;;;;;;4996025;28;20297;-74
2023/03/03 01:53:29;;;;;;;4.60;3.58;;;6.20;49.40;;;;;;5000825;28;20038;-75
2023/03/03 01:55:56;;;;;;;3.03;2.72;;;6.20;49.50;;;;;;5003554;28;20499;-73
2023/03/03 01:58:29;;;;;;;3.67;3.20;;;6.20;49.50;;;;;;5001695;28;20022;-77
2023/03/03 02:01:04;;;;;;;3.10;2.90;;;6.20;49.60;;;;;;4998716;28;20023;-75
2023/03/03 02:03:31;;;;;;;4.78;3.20;;;6.10;49.50;;;;;;5002328;28;20028;-76
2023/03/03 02:06:04;;;;;;;7.15;3.05;;;6.20;49.70;;;;;;5001544;28;20034;-74
2023/03/03 02:08:58;;;;;;;5.85;3.28;;;6.10;49.50;;;;;;5002287;28;20093;-74
2023/03/03 02:11:25;;;;;;;3.13;2.80;;;6.10;49.60;;;;;;4984449;28;20331;-75
2023/03/03 02:13:52;;;;;;;3.78;2.80;;;6.10;49.50;;;;;;5006485;28;20042;-75
2023/03/03 02:16:18;;;;;;;6.05;3.08;;;6.10;49.50;;;;;;5005971;28;20038;-75
2023/03/03 02:18:45;;;;;;;6.28;2.65;;;6.10;49.50;;;;;;5005808;28;20436;-73
2023/03/03 02:21:14;;;;;;;3.75;2.70;;;6.10;49.50;;;;;;4989800;28;20120;-75
2023/03/03 02:23:55;;;;;;;3.85;2.75;;;6.10;49.50;;;;;;4986707;28;20288;-75
2023/03/03 02:26:30;;;;;;;4.78;2.60;;;6.20;49.70;;;;;;5006551;28;20407;-76
2023/03/03 02:29:02;;;;;;;3.38;3.08;;;6.10;49.50;;;;;;4987408;28;20030;-74
2023/03/03 02:31:30;;;;;;;5.47;2.67;;;6.10;49.50;;;;;;5002230;28;20137;-74
2023/03/03 02:33:57;;;;;;;3.75;3.15;;;6.10;49.50;;;;;;4985632;28;20034;-75
2023/03/03 02:36:27;;;;;;;2.92;2.72;;;6.10;49.50;;;;;;5000492;28;20342;-75
2023/03/03 02:39:17;;;;;;;3.45;2.85;;;6.10;49.50;;;;;;4990033;28;20132;-75
2023/03/03 02:41:54;;;;;;;4.20;3.05;;;6.20;49.70;;;;;;5005885;28;20034;-76
2023/03/03 02:44:27;;;;;;;3.03;2.72;;;6.20;49.60;;;;;;5000599;28;20052;-77
2023/03/03 02:46:54;;;;;;;2.60;2.40;;;6.20;49.60;;;;;;5004224;23;20050;-76
2023/03/03 02:49:23;;;;;;;3.15;2.83;;;6.20;49.60;;;;;;4968664;28;20042;-77
2023/03/03 02:51:50;;;;;;;2.97;2.60;;;6.20;49.60;;;;;;4988323;28;20034;-77
2023/03/03 02:54:18;;;;;;;2.90;2.70;;;6.20;49.60;;;;;;4983705;28;20145;-76
2023/03/03 02:56:44;;;;;;;3.08;2.78;;;6.20;49.60;;;;;;4986407;28;20042;-77
2023/03/03 02:59:11;;;;;;;3.47;3.03;;;6.20;49.50;;;;;;4981112;28;20038;-77
2023/03/03 03:01:43;;;;;;;4.63;2.63;;;6.30;49.70;;;;;;4971848;28;20065;-77
2023/03/03 03:04:19;;;;;;;2.53;1.92;;;6.30;49.70;;;;;;4987434;28;20308;-76
2023/03/03 03:06:48;;;;;;;3.13;2.42;;;6.30;50.30;;;;;;4988474;28;20062;-76
2023/03/03 03:09:18;;;;;;;4.60;3.00;;;6.30;49.60;;;;;;4988816;28;20481;-76
2023/03/03 03:11:46;;;;;;;2.50;2.30;;;6.30;49.60;;;;;;4985195;28;20038;-75
2023/03/03 03:14:14;;;;;;;3.65;2.45;;;6.30;49.60;;;;;;4987143;28;20662;-76
2023/03/03 03:16:41;;;;;;;2.53;2.20;;;6.30;49.60;;;;;;4984351;28;20038;-76
2023/03/03 03:19:08;;;;;;;2.58;2.00;;;6.30;49.60;;;;;;4983610;28;20469;-76
2023/03/03 03:21:35;;;;;;;2.30;2.10;;;6.30;49.60;;;;;;4975729;28;20037;-76
2023/03/03 03:24:03;;;;;;;5.53;2.58;;;6.30;49.60;;;;;;4973047;28;20030;-75
2023/03/03 03:26:30;;;;;;;5.43;2.63;;;6.30;49.60;;;;;;4990076;28;20034;-75
2023/03/03 03:28:56;;;;;;;4.97;2.58;;;6.40;49.80;;;;;;4988295;28;20027;-75
2023/03/03 03:31:22;;;;;;;2.83;1.92;;;6.40;49.80;;;;;;4985259;28;20042;-76
2023/03/03 03:33:48;;;;;;;3.22;2.28;;;6.40;49.80;;;;;;4988703;28;20026;-77
2023/03/03 03:36:16;;;;;;;2.95;1.90;;;6.40;49.80;;;;;;4975376;28;20076;-76
2023/03/03 03:38:42;;;;;;;2.28;2.05;;;6.40;49.80;;;;;;4977468;28;20035;-76
2023/03/03 03:41:11;;;;;;;2.40;2.17;;;6.40;49.70;;;;;;4971954;28;20065;-76
2023/03/03 03:43:37;;;;;;;2.83;2.13;;;6.50;49.90;;;;;;4971431;28;20034;-76
2023/03/03 03:46:04;;;;;;;3.08;2.17;;;6.40;49.70;;;;;;4978228;28;20051;-76
2023/03/03 03:48:33;;;;;;;2.33;2.13;;;6.40;49.70;;;;;;4989203;28;20433;-76
2023/03/03 03:51:01;;;;;;;2.70;2.45;;;6.50;49.80;;;;;;4983676;28;20042;-76
2023/03/03 03:53:28;;;;;;;2.30;2.10;;;6.50;49.80;;;;;;4987530;28;20049;-76
2023/03/03 03:55:54;;;;;;;2.47;2.08;;;6.50;49.70;;;;;;4972170;28;20049;-78
2023/03/03 03:58:21;;;;;;;2.58;2.38;;;6.50;49.70;;;;;;4989796;28;20038;-79
2023/03/03 04:00:53;;;;;;;2.67;2.33;;;6.50;49.70;;;;;;4975358;28;20042;-78
2023/03/03 04:03:19;;;;;;;3.70;2.63;;;6.60;49.90;;;;;;4989388;28;20038;-75
2023/03/03 04:05:47;;;;;;;4.00;2.60;;;6.60;49.90;;;;;;4987861;28;20041;-76
2023/03/03 04:08:13;;;;;;;3.20;2.30;;;6.60;49.90;;;;;;4989135;28;20484;-76
2023/03/03 04:10:41;;;;;;;4.22;2.80;;;6.60;49.90;;;;;;4983255;28;20081;-76
2023/03/03 04:13:10;;;;;;;2.33;2.10;;;6.70;50.00;;;;;;4996898;28;20497;-76
2023/03/03 04:15:37;;;;;;;2.78;2.55;;;6.60;49.80;;;;;;4986279;28;20042;-76
2023/03/03 04:18:03;;;;;;;4.75;2.72;;;6.70;50.00;;;;;;4987848;28;20026;-76
2023/03/03 04:20:30;;;;;;;4.47;2.60;;;6.70;49.90;;;;;;4977349;28;20385;-77
2023/03/03 04:22:56;;;;;;;4.72;2.70;;;6.70;49.90;;;;;;4982731;28;20433;-76
2023/03/03 04:25:24;;;;;;;4.38;3.33;;;6.70;49.90;;;;;;4986294;28;20125;-75
2023/03/03 04:27:52;;;;;;;2.95;2.58;;;6.70;50.00;;;;;;4987871;28;20444;-75
2023/03/03 04:30:20;;;;;;;3.10;2.30;;;6.70;49.90;;;;;;4983679;28;20046;-77
2023/03/03 04:32:49;;;;;;;2.88;2.58;;;6.60;49.80;;;;;;4957349;28;20031;-76
2023/03/03 04:35:18;;;;;;;4.95;2.75;;;6.70;49.90;;;;;;4985786;28;20166;-76
2023/03/03 04:37:44;;;;;;;4.40;2.67;;;6.70;49.90;;;;;;4986084;28;20045;-76
2023/03/03 04:40:11;;;;;;;3.90;2.58;;;6.70;49.90;;;;;;4984856;28;20034;-76
2023/03/03 04:42:39;;;;;;;2.80;2.00;;;6.70;50.00;;;;;;4986103;28;20041;-76
2023/03/03 04:45:07;;;;;;;4.80;2.70;;;6.70;49.90;;;;;;4985545;28;20034;-77
2023/03/03 04:47:34;;;;;;;4.55;2.60;;;6.70;49.90;;;;;;4985502;28;20070;-76
2023/03/03 04:50:00;;;;;;;3.35;2.38;;;6.70;49.90;;;;;;4971768;28;20733;-76
2023/03/03 04:52:29;;;;;;;7.28;2.90;;;6.70;50.00;;;;;;4992650;28;20125;-76
2023/03/03 04:54:55;;;;;;;2.38;2.17;;;6.70;49.90;;;;;;5003089;28;20084;-76
2023/03/03 04:57:22;;;;;;;3.10;2.33;;;6.70;49.90;;;;;;5014283;28;20667;-76
2023/03/03 04:59:48;;;;;;;4.07;2.13;;;6.70;49.90;;;;;;5004475;28;20034;-77
2023/03/03 05:02:14;;;;;;;3.70;2.53;;;6.70;49.90;;;;;;4983831;28;20086;-75
2023/03/03 05:04:41;;;;;;;3.20;2.33;;;6.70;49.90;;;;;;5004389;28;20033;-76
2023/03/03 05:07:07;;;;;;;2.65;2.40;;;6.70;49.90;;;;;;4993345;28;20552;-76
2023/03/03 05:09:33;;;;;;;3.20;2.90;;;6.80;50.00;;;;;;4997618;28;20037;-75
2023/03/03 05:11:59;;;;;;;4.50;2.47;;;6.80;50.00;;;;;;5006403;28;20037;-75
2023/03/03 05:14:26;;;;;;;2.70;1.90;;;6.80;50.00;;;;;;4998063;28;20036;-75
2023/03/03 05:16:51;;;;;;;2.55;2.28;;;6.70;49.80;;;;;;5005493;28;20034;-75
2023/03/03 05:19:17;;;;;;;2.00;1.88;;;6.70;49.80;;;;;;4997835;28;20047;-75
2023/03/03 05:21:44;;;;;;;2.92;2.20;;;6.80;50.00;;;;;;4977595;28;20036;-76
2023/03/03 05:24:11;;;;;;;2.42;1.95;;;6.80;50.10;;;;;;4995322;28;20128;-75
2023/03/03 05:26:38;;;;;;;1.88;1.77;;;6.80;50.00;;;;;;5008411;28;20030;-77
2023/03/03 05:29:05;;;;;;;2.47;1.92;;;6.80;50.00;;;;;;5018321;28;20060;-76
2023/03/03 05:31:32;;;;;;;2.42;2.15;;;6.80;50.00;;;;;;4993047;28;20109;-74
2023/03/03 05:33:57;;;;;;;3.28;2.15;;;6.80;50.00;;;;;;4997557;28;20044;-75
2023/03/03 05:36:24;;;;;;;3.05;1.95;;;6.80;50.00;;;;;;5006639;28;20160;-75
2023/03/03 05:38:50;;;;;;;2.30;2.10;;;6.80;50.00;;;;;;5003771;28;20072;-77
2023/03/03 05:41:16;;;;;;;2.85;2.20;;;6.80;50.00;;;;;;4986225;28;20034;-75
2023/03/03 05:43:43;;;;;;;2.20;2.00;;;6.80;50.00;;;;;;5005313;28;20062;-78
2023/03/03 05:46:09;;;;;;;3.17;2.15;;;6.80;50.00;;;;;;5005062;28;20050;-76
2023/03/03 05:48:35;;;;;;;4.13;2.22;;;6.80;50.00;;;;;;5000783;28;20030;-75
2023/03/03 05:51:02;;;;;;;1.98;1.88;;;6.80;50.00;;;;;;4991274;28;20055;-76
2023/03/03 05:53:28;;;;;;;3.10;2.13;;;6.80;50.00;;;;;;4990906;28;20125;-75
2023/03/03 05:55:54;;;;;;;2.28;2.08;;;6.80;50.00;;;;;;4988262;28;20042;-78
2023/03/03 05:58:20;;;;;;;3.40;2.08;;;6.80;50.00;;;;;;4990265;28;20034;-75
2023/03/03 06:00:47;;;;;;;2.35;2.08;;;6.90;50.20;;;;;;4985131;28;20031;-75
2023/03/03 06:03:13;;;;;;;2.97;2.25;;;6.80;50.00;;;;;;4988211;28;20451;-77
2023/03/03 06:05:39;;;;;;;3.28;2.35;;;6.80;49.90;;;;;;4989173;28;20058;-74
2023/03/03 06:08:05;;;;;;;4.15;2.53;;;6.90;50.10;;;;;;4992753;28;20044;-74
2023/03/03 06:10:31;;;;;;;2.60;2.40;;;6.80;49.90;;;;;;4984133;28;20046;-76
2023/03/03 06:13:01;;;;;;;3.40;2.10;;;6.80;49.90;;;;;;4990129;28;20084;-76
2023/03/03 06:15:27;;;;;;;3.22;2.92;;;6.80;49.90;;;;;;4989358;28;20513;-76
2023/03/03 06:17:53;;;;;;;2.05;1.83;;;6.90;50.10;;;;;;4993176;28;20022;-76
2023/03/03 06:20:19;;;;;;;3.05;2.10;;;6.80;49.90;;;;;;4986845;28;20061;-75
2023/03/03 06:22:45;;;;;;;2.70;2.08;;;6.90;50.10;;;;;;4986475;28;20501;-77
2023/03/03 06:25:11;;;;;;;4.47;2.40;;;6.90;50.10;;;;;;4984515;28;20042;-75
2023/03/03 06:27:37;;;;;;;4.30;2.35;;;6.80;49.90;;;;;;4981567;28;20080;-76
2023/03/03 06:30:05;;;;;;;2.58;2.38;;;6.80;49.90;;;;;;4979268;28;20031;-74
2023/03/03 06:32:31;;;;;;;2.30;2.10;;;6.90;50.10;;;;;;4988373;28;20034;-75
2023/03/03 06:34:57;;;;;;;2.67;2.28;;;6.90;50.00;;;;;;4977557;28;20105;-76
2023/03/03 06:37:23;;;;;;;3.08;2.17;;;6.90;50.10;;;;;;4981883;28;20069;-76
2023/03/03 06:39:51;;;;;;;4.47;2.45;;;6.90;50.00;;;;;;4987104;28;20026;-75
2023/03/03 06:42:18;;;;;;;2.75;2.28;;;6.90;50.00;;;;;;4984349;28;20042;-77
2023/03/03 06:44:44;;;;;;;2.50;2.00;;;6.90;50.00;;;;;;4983843;28;20570;-75
2023/03/03 06:47:10;;;;;;;2.47;2.00;;;6.90;49.90;;;;;;4988686;28;20173;-75
2023/03/03 06:49:36;;;;;;;3.33;2.00;;;6.90;49.90;;;;;;4988173;28;20081;-76
2023/03/03 06:52:14;;;;;;;2.88;1.85;;;6.90;49.90;;;;;;4987067;28;20619;-78
2023/03/03 06:54:40;;;;;;;3.25;2.33;;;6.90;49.90;;;;;;4982311;28;20037;-77
2023/03/03 06:57:18;;;;;;;3.25;1.83;;;6.90;49.80;;;;;;4992948;28;20093;-78
2023/03/03 06:59:48;;;;;;;5.07;2.55;;;6.90;49.70;;;;;;4992115;28;20026;-76
2023/03/03 07:02:16;;;;;;;3.60;2.10;;;6.90;49.50;;;;;;4985106;28;20027;-78
2023/03/03 07:04:44;;;;;;;2.33;2.10;;;6.90;49.40;;;;;;4984483;28;20141;-78
2023/03/03 07:07:14;;;;;;;3.47;1.95;;;6.80;49.20;;;;;;4982571;28;20156;-77
2023/03/03 07:09:42;;;;;;;2.88;2.08;;;6.80;49.20;;;;;;4985222;28;20034;-76
2023/03/03 07:12:19;;;;;;;3.03;2.22;;;6.80;49.50;;;;;;4978440;28;20800;-77
2023/03/03 07:14:50;;;;;;;3.83;1.88;;;6.80;49.60;;;;;;4979939;28;20990;-76
2023/03/03 07:17:19;;;;;;;3.67;2.00;;;6.90;49.70;;;;;;4987626;28;20068;-76
2023/03/03 07:19:48;;;;;;;3.97;2.85;;;6.90;50.00;;;;;;4963073;28;20034;-76
2023/03/03 07:22:21;;;;;;;2.53;1.90;;;6.90;50.30;;;;;;4981107;28;20034;-77
2023/03/03 07:24:52;;;;;;;3.22;2.35;;;7.00;50.60;;;;;;4988520;28;20046;-77
2023/03/03 07:27:18;;;;;;;3.88;2.30;;;7.00;50.60;;;;;;4988890;28;20034;-76
2023/03/03 07:29:50;;;;;;;2.75;2.00;;;7.10;50.80;;;;;;4977756;28;20549;-76
2023/03/03 07:32:43;;;;;;;4.05;2.03;;;7.20;51.40;;;;;;4979769;28;20254;-74
2023/03/03 07:35:37;;;;;;;5.28;1.80;;;7.30;52.00;;;;;;4978727;28;20046;-75
2023/03/03 07:38:15;;;;;;;4.50;2.10;;;7.50;52.20;;;;;;4974412;28;20062;-74
2023/03/03 07:40:48;;;;;;;2.58;1.80;;;7.60;52.20;;;;;;4978783;28;20034;-75
2023/03/03 07:43:42;;;;;;;2.67;2.00;;;7.70;52.30;;;;;;4991345;28;20036;-74
2023/03/03 07:46:27;;;;;;;2.33;2.00;;;7.90;53.30;;;;;;4989369;28;20148;-75
2023/03/03 07:48:55;;;;;;;2.13;1.92;;;8.00;52.70;;;;;;4983515;28;20372;-75
2023/03/03 07:51:27;;;;;;;2.22;1.88;;;8.10;52.70;;;;;;4983955;28;20933;-75
2023/03/03 07:54:24;;;;;;;2.08;1.95;;;8.20;52.80;;;;;;4982024;28;20042;-76
2023/03/03 07:56:51;;;;;;;2.55;1.95;;;8.30;52.90;;;;;;4981012;28;20046;-75
2023/03/03 07:59:26;;;;;;;2.28;1.70;;;8.40;52.90;;;;;;4976136;28;20026;-75
2023/03/03 08:01:59;;;;;;;3.28;1.88;;;8.60;53.20;;;;;;4980043;28;20034;-75
2023/03/03 08:04:40;;;;;;;4.18;2.10;;;8.60;53.10;;;;;;4980433;28;20039;-76
2023/03/03 08:07:15;;;;;;;4.60;1.88;;;8.70;53.20;;;;;;4981698;28;20046;-75
2023/03/03 08:09:47;;;;;;;2.40;2.00;;;8.80;53.30;;;;;;4981857;28;20445;-76
2023/03/03 08:12:26;;;;;;;3.17;1.60;;;8.90;53.40;;;;;;4981503;28;20289;-76
2023/03/03 08:14:54;;;;;;;2.85;1.95;;;8.90;53.40;;;;;;4980629;28;20053;-77
2023/03/03 08:17:23;;;;;;;3.55;2.20;;;9.00;53.40;;;;;;4975929;28;20145;-78
2023/03/03 08:19:51;;;;;;;2.25;1.67;;;9.10;53.50;;;;;;4982527;28;20077;-76
2023/03/03 08:22:29;;;;;;;2.33;1.67;;;9.10;53.50;;;;;;4976274;28;20049;-76
2023/03/03 08:24:56;;;;;;;5.40;1.70;;;9.20;53.60;;;;;;4986192;28;20034;-75
2023/03/03 08:27:24;;;;;;;2.45;2.00;;;9.30;53.60;;;;;;4980780;28;20101;-77
2023/03/03 08:29:50;;;;;;;1.73;1.63;;;9.30;53.60;;;;;;4987826;28;20474;-76
2023/03/03 08:32:17;;;;;;;2.83;1.75;;;9.40;53.70;;;;;;4982083;28;20105;-75
2023/03/03 08:34:43;;;;;;;2.67;2.00;;;9.40;53.60;;;;;;4982810;28;20042;-75
2023/03/03 08:37:09;;;;;;;3.00;1.77;;;9.50;53.70;;;;;;4979419;28;20038;-74
2023/03/03 08:39:35;;;;;;;2.88;2.67;;;9.60;53.80;;;;;;4982475;28;20490;-75
2023/03/03 08:42:01;;;;;;;2.53;1.77;;;9.60;53.70;;;;;;4979712;28;20116;-75
2023/03/03 08:44:27;;;;;;;5.82;1.80;;;9.70;53.70;;;;;;4979708;28;20030;-74
2023/03/03 08:46:53;;;;;;;1.90;1.80;;;9.80;53.80;;;;;;4963590;28;20537;-75
2023/03/03 08:49:20;;;;;;;3.17;2.13;;;9.80;53.70;;;;;;4980248;28;20787;-74
2023/03/03 08:51:47;;;;;;;3.45;2.17;;;9.90;54.40;;;;;;4979051;28;20373;-74
2023/03/03 08:54:12;;;;;;;4.00;1.60;;;9.90;53.60;;;;;;4989624;28;20053;-76
2023/03/03 08:56:39;;;;;;;2.63;1.70;;;10.00;53.60;;;;;;4982601;28;20043;-78
2023/03/03 08:59:05;;;;;;;4.07;1.85;;;10.00;53.60;;;;;;4979756;28;20037;-76
2023/03/03 09:01:32;;;;;;;2.40;1.90;;;10.10;53.70;;;;;;4980945;28;20097;-76
2023/03/03 09:03:58;;;;;;;1.48;1.38;;;10.10;53.60;;;;;;4971518;28;20030;-77
2023/03/03 09:06:24;;;;;;;2.53;1.50;;;10.10;53.60;;;;;;4993751;28;20046;-77
2023/03/03 09:08:50;;;;;;;2.22;1.77;;;10.20;53.60;;;;;;4985540;28;20040;-77
2023/03/03 09:11:25;;;;;;;3.03;1.88;;;10.30;53.70;;;;;;4979878;28;20038;-78
2023/03/03 09:14:13;;;;;;;3.92;1.90;;;10.30;53.70;;;;;;4980993;28;20042;-78
2023/03/03 09:16:53;;;;;;;4.40;2.40;;;10.40;53.80;;;;;;4982049;28;20042;-77
2023/03/03 09:19:22;;;;;;;2.63;2.00;;;10.40;53.60;;;;;;4982374;28;20026;-73
2023/03/03 09:21:54;;;;;;;4.45;1.80;;;10.50;53.60;;;;;;4960103;28;20038;-75
2023/03/03 09:24:28;;;;;;;2.85;2.28;;;10.50;53.50;;;;;;4982501;28;20085;-75
2023/03/03 09:26:57;;;;;;;1.80;1.55;;;10.60;53.60;;;;;;4974724;28;20057;-76
2023/03/03 09:29:27;;;;;;;2.70;2.45;;;10.70;53.70;;;;;;4981793;28;20030;-76
2023/03/03 09:31:55;;;;;;;3.67;1.73;;;10.70;53.60;;;;;;4966806;28;20046;-76
2023/03/03 09:34:23;;;;;;;3.30;1.92;;;10.80;53.60;;;;;;4983300;28;20533;-77
2023/03/03 09:36:51;;;;;;;2.97;1.73;;;10.90;53.60;;;;;;4982569;28;20034;-76
2023/03/03 09:39:24;;;;;;;2.47;2.22;;;11.00;53.60;;;;;;4983916;28;20039;-77
2023/03/03 09:41:59;;;;;;;2.72;1.95;;;11.10;53.50;;;;;;4974775;28;20037;-74
2023/03/03 09:44:50;;;;;;;2.40;1.70;;;11.20;53.40;;;;;;4978309;28;20459;-77
2023/03/03 09:47:28;;;;;;;2.42;1.58;;;11.30;53.40;;;;;;4981117;28;20046;-76
2023/03/03 09:50:30;;;;;;;2.65;1.85;;;11.40;53.30;;;;;;4978911;28;20038;-76
2023/03/03 09:53:13;;;;;;;5.13;1.80;;;11.50;53.20;;;;;;4977824;28;20086;-76
2023/03/03 09:55:43;;;;;;;3.30;1.83;;;11.70;53.40;;;;;;4984024;28;20029;-78
2023/03/03 09:58:54;;;;;;;2.75;1.90;;;11.70;53.20;;;;;;4979903;28;20137;-77
2023/03/03 10:01:43;;;;;;;2.13;1.70;;;11.80;53.10;;;;;;4975512;28;20049;-77
2023/03/03 10:04:35;;;;;;;3.15;1.85;;;11.90;53.20;;;;;;4980185;28;20128;-76
2023/03/03 10:07:20;;;;;;;1.60;1.50;;;12.00;53.10;;;;;;4993909;28;20027;-75
2023/03/03 10:10:02;;;;;;;1.95;1.73;;;12.10;53.00;;;;;;4978214;28;20143;-76
2023/03/03 10:12:36;;;;;;;1.73;1.40;;;12.20;52.90;;;;;;4981673;28;20050;-76
2023/03/03 10:15:23;;;;;;;2.35;1.40;;;12.20;52.80;;;;;;4978694;28;20707;-76
2023/03/03 10:18:03;;;;;;;1.83;1.58;;;12.30;52.70;;;;;;4979513;28;20540;-76
2023/03/03 10:20:44;;;;;;;1.48;1.38;;;12.30;52.60;;;;;;4972035;28;20049;-76
2023/03/03 10:23:43;;;;;;;2.42;1.60;;;12.30;52.50;;;;;;4975926;28;20390;-75
2023/03/03 10:26:18;;;;;;;2.13;1.60;;;12.40;52.40;;;;;;4972616;28;20488;-76
2023/03/03 10:28:53;;;;;;;2.30;1.50;;;12.40;52.30;;;;;;4980047;28;20209;-78
2023/03/03 10:31:34;;;;;;;2.13;1.33;;;12.50;52.40;;;;;;4982175;28;20042;-77
2023/03/03 10:34:27;;;;;;;2.28;1.75;;;12.50;52.00;;;;;;4977573;28;20035;-76
2023/03/03 10:37:16;;;;;;;1.80;1.30;;;12.60;52.00;;;;;;4988037;28;20030;-76
2023/03/03 10:39:51;;;;;;;1.45;1.35;;;12.70;52.00;;;;;;4977914;28;20426;-75
2023/03/03 10:42:26;;;;;;;2.80;1.25;;;12.80;52.10;;;;;;4980190;28;20565;-76
2023/03/03 10:45:20;;;;;;;1.38;1.27;;;12.80;52.00;;;;;;4984437;28;20026;-76
2023/03/03 10:47:58;;;;;;;1.38;1.27;;;12.80;51.70;;;;;;4983804;28;20058;-77
2023/03/03 10:50:46;;;;;;;1.55;1.45;;;12.90;51.70;;;;;;4973885;28;20078;-77
2023/03/03 10:53:44;;;;;;;2.63;1.60;;;12.90;51.60;;;;;;4983270;28;20378;-76
2023/03/03 10:56:25;;;;;;;3.30;1.27;;;12.90;51.50;;;;;;4963357;28;20168;-76
2023/03/03 10:59:15;;;;;;;3.13;1.20;;;12.90;51.30;;;;;;4989047;28;20244;-76
2023/03/03 11:02:05;;;;;;;1.80;1.63;;;13.00;51.40;;;;;;4982221;28;20040;-77
2023/03/03 11:04:44;;;;;;;1.95;1.40;;;13.00;51.30;;;;;;4984261;28;20038;-74
2023/03/03 11:07:20;;;;;;;1.25;1.15;;;13.10;51.30;;;;;;4984231;28;20092;-77
2023/03/03 11:10:24;;;;;;;3.10;1.38;;;13.20;51.30;;;;;;4987947;28;20067;-76
2023/03/03 11:13:09;;;;;;;2.45;1.40;;;13.20;51.10;;;;;;4984861;28;20069;-76
2023/03/03 11:15:57;;;;;;;1.85;1.30;;;13.30;51.20;;;;;;4984101;28;20034;-77
2023/03/03 11:18:53;;;;;;;1.67;1.40;;;13.40;51.10;;;;;;4975619;28;20065;-77
2023/03/03 11:21:36;;;;;;;2.50;1.52;;;13.40;50.90;;;;;;4983500;28;20112;-76
2023/03/03 11:24:04;;;;;;;;;;;13.40;50.80;;;;;;4985031;28;20520;-77
2023/03/03 11:26:49;;;;;;;2.55;1.33;;;13.50;51.00;;;;;;4982287;28;19921;-75
2023/03/03 11:30:03;;;;;;;2.38;1.27;;;13.60;51.10;;;;;;4976258;28;20034;-76
2023/03/03 11:32:50;;;;;;;4.95;1.45;;;13.60;50.80;;;;;;4980846;28;20053;-78
2023/03/03 11:35:22;;;;;;;1.60;1.50;;;13.70;50.90;;;;;;4987750;28;20026;-79
2023/03/03 11:38:35;;;;;;;2.00;1.20;;;13.70;50.80;;;;;;4985357;28;20064;-76
2023/03/03 11:41:03;;;;;;;2.13;1.50;;;13.70;50.50;;;;;;4976025;28;20110;-76
2023/03/03 11:43:48;;;;;;;1.67;1.58;;;13.70;50.50;;;;;;4983435;28;20065;-76
2023/03/03 11:46:28;;;;;;;1.90;1.17;;;13.80;50.60;;;;;;4989680;28;20074;-76
2023/03/03 11:49:21;;;;;;;3.10;2.15;;;13.80;50.50;;;;;;4988713;28;20022;-76
2023/03/03 11:52:00;;;;;;;2.40;1.80;;;13.90;50.70;;;;;;4985051;28;20137;-78
2023/03/03 11:54:35;;;;;;;2.65;1.80;;;13.90;50.50;;;;;;4979260;28;20034;-77
2023/03/03 11:57:24;;;;;;;2.63;1.65;;;13.90;50.30;;;;;;4984675;28;20034;-77
2023/03/03 11:59:58;;;;;;;3.28;1.90;;;13.90;49.90;;;;;;4988940;28;20041;-76
2023/03/03 12:02:42;;;;;;;2.03;1.60;;;13.90;50.00;;;;;;4984056;28;20046;-76
2023/03/03 12:05:23;;;;;;;2.60;1.33;;;13.90;49.80;;;;;;4988324;28;20117;-75
2023/03/03 12:08:23;;;;;;;3.60;1.38;;;14.00;50.70;;;;;;4992426;28;20030;-76
2023/03/03 12:11:09;;;;;;;1.55;1.17;;;14.10;50.70;;;;;;5003475;28;20050;-76
2023/03/03 12:13:57;;;;;;;3.95;2.10;;;14.20;50.80;;;;;;5003376;28;20074;-74
2023/03/03 12:16:34;;;;;;;1.50;1.20;;;14.40;50.80;;;;;;4994212;28;20035;-77
2023/03/03 12:19:46;;;;;;;1.60;1.10;;;14.50;50.60;;;;;;4999421;28;20101;-76
2023/03/03 12:22:45;;;;;;;3.58;1.92;;;14.50;50.20;;;;;;4990812;28;20046;-78
2023/03/03 12:25:21;;;;;;;3.40;1.77;;;14.50;50.10;;;;;;5002195;28;20081;-77
2023/03/03 12:28:15;;;;;;;1.88;1.40;;;14.50;50.00;;;;;;4985459;28;20336;-77
2023/03/03 12:31:09;;;;;;;2.15;1.50;;;14.50;49.70;;;;;;4985158;28;20566;-77
2023/03/03 12:33:52;;;;;;;5.40;2.60;;;14.50;49.30;;;;;;4984700;28;20088;-77
2023/03/03 12:36:27;;;;;;;2.55;1.70;;;14.50;49.20;;;;;;4986540;28;20065;-78
2023/03/03 12:39:32;;;;;;;1.98;1.75;;;14.40;49.10;;;;;;4985877;28;20358;-77
2023/03/03 12:42:24;;;;;;;2.03;1.90;;;14.30;48.50;;;;;;4967448;28;20077;-77
2023/03/03 12:45:08;;;;;;;1.58;1.48;;;14.10;48.40;;;;;;4979271;28;20038;-78
2023/03/03 12:47:45;;;;;;;2.45;1.67;;;14.10;48.60;;;;;;4982936;28;20046;-77
2023/03/03 12:50:48;;;;;;;1.50;1.40;;;14.00;48.40;;;;;;4978574;28;20035;-75
2023/03/03 12:53:37;;;;;;;2.70;1.58;;;13.90;48.00;;;;;;4979264;28;20474;-78
2023/03/03 12:56:06;;;;;;;3.22;2.25;;;13.80;48.10;;;;;;4994231;28;20229;-77
2023/03/03 12:59:00;;;;;;;1.92;1.73;;;13.70;47.90;;;;;;4982225;28;20053;-77
2023/03/03 13:01:48;;;;;;;1.98;1.77;;;13.60;47.50;;;;;;4975230;28;20421;-76
2023/03/03 13:05:08;;;;;;;2.03;1.80;;;13.60;47.40;;;;;;4978915;28;20126;-75
2023/03/03 13:07:56;;;;;;;2.00;1.77;;;13.60;47.20;;;;;;4976799;28;20198;-76
2023/03/03 13:10:37;;;;;;;2.10;1.90;;;13.60;47.50;;;;;;4979921;28;20046;-78
2023/03/03 13:13:23;;;;;;;1.90;1.70;;;13.60;47.50;;;;;;4987869;28;20453;-79
2023/03/03 13:16:03;;;;;;;;;;;13.70;47.30;;;;;;4980858;28;20049;-77
2023/03/03 13:18:48;;;;;;;1.50;1.40;;;13.70;47.40;;;;;;4983469;28;19917;-76
2023/03/03 13:21:23;;;;;;;1.70;1.60;;;13.70;47.30;;;;;;4971401;28;20062;-77
2023/03/03 13:24:07;;;;;;;2.33;2.13;;;13.70;47.20;;;;;;4982218;28;20096;-78
2023/03/03 13:26:48;;;;;;;2.42;1.90;;;13.70;46.80;;;;;;4983786;28;20397;-77
2023/03/03 13:29:25;;;;;;;3.47;1.90;;;13.70;46.80;;;;;;4971847;28;20109;-78
2023/03/03 13:32:20;;;;;;;2.33;2.00;;;13.60;46.60;;;;;;4971976;28;20038;-78